Time;durP1;ratioP1;P1;durP2;ratioP2;P2;SDS_P1;SDS_P2;PMS_P1;PMS_P2;Temp;Humidity;BMP_temperature;BMP_pressure;BME280_temperature;BME280_humidity;BME280_pressure;Samples;Min_cycle;Max_cycle;Signal;HPM_P1;HPM_P2
2021/11/27 00:01:51;;;;;;;4.57;1.70;;;8.10;59.80;;;;;;2588846;53;20984;-68
2021/11/27 00:04:17;;;;;;;4.43;1.80;;;8.00;59.60;;;;;;2342901;54;20941;-67
2021/11/27 00:06:44;;;;;;;5.32;1.70;;;7.90;59.60;;;;;;2337772;54;21478;-67
2021/11/27 00:12:41;;;;;;;3.05;1.33;;;7.70;60.00;;;;;;2588763;53;21432;-68
2021/11/27 00:15:08;;;;;;;4.45;1.50;;;7.60;60.50;;;;;;2342417;54;21933;-68
2021/11/27 00:17:43;;;;;;;6.25;1.95;;;7.60;60.90;;;;;;2341581;54;21378;-69
2021/11/27 00:23:38;;;;;;;3.60;1.30;;;7.50;61.10;;;;;;2578923;53;21030;-68
2021/11/27 00:26:05;;;;;;;3.53;1.50;;;7.50;61.60;;;;;;2318884;54;20965;-68
2021/11/27 00:28:35;;;;;;;3.15;1.30;;;7.50;61.80;;;;;;2554875;53;21910;-67
2021/11/27 00:31:03;;;;;;;3.40;1.33;;;7.50;61.80;;;;;;2315907;54;21104;-68
2021/11/27 00:33:30;;;;;;;5.85;1.60;;;7.50;61.70;;;;;;2300653;55;21089;-68
2021/11/27 00:35:56;;;;;;;2.70;1.00;;;7.50;62.00;;;;;;2549647;53;21052;-68
2021/11/27 00:38:26;;;;;;;3.37;1.30;;;7.50;62.20;;;;;;2342489;54;20983;-69
2021/11/27 00:40:52;;;;;;;4.43;1.52;;;7.50;62.30;;;;;;2554122;53;21062;-68
2021/11/27 00:43:20;;;;;;;4.37;1.52;;;7.50;62.20;;;;;;2321090;54;20996;-67
2021/11/27 00:45:47;;;;;;;2.47;1.00;;;7.50;62.20;;;;;;2315661;54;20979;-68
2021/11/27 00:48:13;;;;;;;3.67;1.30;;;7.50;62.50;;;;;;2342420;54;20984;-68
2021/11/27 00:50:54;;;;;;;2.60;1.10;;;7.50;62.50;;;;;;2318893;54;21006;-68
2021/11/27 00:53:21;;;;;;;3.20;1.10;;;7.60;62.70;;;;;;2341902;54;20968;-69
2021/11/27 00:55:48;;;;;;;3.15;1.30;;;7.60;62.70;;;;;;2321718;54;20998;-68
2021/11/27 00:58:15;;;;;;;4.45;1.23;;;7.60;62.60;;;;;;2341121;54;20933;-71
2021/11/27 01:00:44;;;;;;;3.47;1.40;;;7.70;62.50;;;;;;2318933;54;20949;-69
2021/11/27 01:03:12;;;;;;;3.70;1.10;;;7.70;62.60;;;;;;2588549;53;21038;-69
2021/11/27 01:05:39;;;;;;;3.05;1.20;;;7.70;62.80;;;;;;2318984;55;20933;-69
2021/11/27 01:08:05;;;;;;;2.65;1.05;;;7.70;62.90;;;;;;2321130;54;21550;-70
2021/11/27 01:10:42;;;;;;;2.67;1.15;;;7.80;62.80;;;;;;2324561;54;21011;-68
2021/11/27 01:13:09;;;;;;;3.20;1.30;;;7.80;63.10;;;;;;2578906;53;20976;-69
2021/11/27 01:15:36;;;;;;;3.30;1.30;;;7.80;63.10;;;;;;2343609;54;20936;-69
2021/11/27 01:18:02;;;;;;;3.08;1.17;;;7.80;63.10;;;;;;2322096;54;20953;-70
2021/11/27 01:20:35;;;;;;;3.28;1.10;;;7.80;63.00;;;;;;2567252;53;20991;-68
2021/11/27 01:23:01;;;;;;;2.90;1.00;;;7.90;63.10;;;;;;2532685;54;20947;-70
2021/11/27 01:25:28;;;;;;;3.22;1.00;;;7.90;63.10;;;;;;2316683;54;21015;-70
2021/11/27 01:27:55;;;;;;;5.00;1.20;;;7.90;63.10;;;;;;2331838;54;21011;-71
2021/11/27 01:30:21;;;;;;;2.03;0.77;;;7.90;63.00;;;;;;2342264;54;20949;-69
2021/11/27 01:32:48;;;;;;;2.22;0.93;;;7.90;63.20;;;;;;2342212;54;20957;-70
2021/11/27 01:35:14;;;;;;;2.75;1.20;;;7.90;63.30;;;;;;2318638;55;20940;-69
2021/11/27 01:37:40;;;;;;;2.72;1.23;;;7.90;62.60;;;;;;2587383;53;21540;-70
2021/11/27 01:40:09;;;;;;;2.10;0.80;;;7.90;62.90;;;;;;2340916;54;20941;-70
2021/11/27 01:42:36;;;;;;;2.67;1.00;;;7.90;63.00;;;;;;2322706;54;21009;-68
2021/11/27 01:45:06;;;;;;;3.30;0.90;;;7.90;63.10;;;;;;2316549;54;20983;-70
2021/11/27 01:47:33;;;;;;;2.45;0.82;;;7.90;62.80;;;;;;2301370;54;20951;-70
2021/11/27 01:49:59;;;;;;;1.92;0.85;;;7.90;63.60;;;;;;2544973;54;20964;-71
2021/11/27 01:52:26;;;;;;;2.40;0.90;;;7.90;63.10;;;;;;2566304;53;20999;-68
2021/11/27 01:54:52;;;;;;;1.95;0.80;;;7.90;63.30;;;;;;2562534;53;20992;-68
2021/11/27 01:57:18;;;;;;;2.47;0.93;;;7.90;63.30;;;;;;2308076;54;20984;-69
2021/11/27 01:59:45;;;;;;;2.65;0.90;;;7.80;63.20;;;;;;2341599;54;21039;-68
2021/11/27 02:02:12;;;;;;;1.75;0.80;;;7.80;63.20;;;;;;2321956;54;20973;-68
2021/11/27 02:04:39;;;;;;;2.40;0.80;;;7.80;63.20;;;;;;2320647;54;20960;-68
2021/11/27 02:07:06;;;;;;;2.17;0.80;;;7.70;63.20;;;;;;2328073;54;20952;-67
2021/11/27 02:09:34;;;;;;;2.42;1.00;;;7.70;63.30;;;;;;2331628;54;21446;-67
2021/11/27 02:12:02;;;;;;;2.70;1.00;;;7.60;63.30;;;;;;2570745;53;21505;-68
2021/11/27 02:14:28;;;;;;;2.53;1.02;;;7.50;63.30;;;;;;2328712;54;21540;-68
2021/11/27 02:16:54;;;;;;;2.90;0.88;;;7.50;63.50;;;;;;2312971;54;21007;-68
2021/11/27 02:19:24;;;;;;;2.47;1.20;;;7.40;63.50;;;;;;2338459;54;21025;-68
2021/11/27 02:21:50;;;;;;;3.62;1.30;;;7.40;63.70;;;;;;2331959;54;20950;-68
2021/11/27 02:24:23;;;;;;;4.47;1.00;;;7.30;63.80;;;;;;2334258;54;20979;-68
2021/11/27 02:26:49;;;;;;;2.17;0.90;;;7.20;63.90;;;;;;2332439;54;21976;-68
2021/11/27 02:29:21;;;;;;;2.55;1.00;;;7.20;64.10;;;;;;2326621;54;20940;-68
2021/11/27 02:31:50;;;;;;;2.37;0.93;;;7.10;64.30;;;;;;2334173;54;21590;-68
2021/11/27 02:34:17;;;;;;;1.90;0.73;;;7.00;64.30;;;;;;2548475;54;20933;-69
2021/11/27 02:36:50;;;;;;;2.40;0.90;;;7.00;64.50;;;;;;2585537;53;21932;-69
2021/11/27 02:39:16;;;;;;;;;;;6.90;64.50;;;;;;2333056;54;21749;-69
2021/11/27 02:41:43;;;;;;;2.20;1.00;;;6.90;64.50;;;;;;2530190;53;20096;-68
2021/11/27 02:44:09;;;;;;;2.05;1.00;;;6.80;64.60;;;;;;2314361;54;20967;-68
2021/11/27 02:46:37;;;;;;;1.77;0.88;;;6.80;64.80;;;;;;2342826;54;21316;-68
2021/11/27 02:49:06;;;;;;;2.55;1.10;;;6.80;65.10;;;;;;2319060;55;20992;-69
2021/11/27 02:51:35;;;;;;;2.37;1.00;;;6.70;65.10;;;;;;2319377;55;20941;-68
2021/11/27 02:54:01;;;;;;;2.05;0.90;;;6.70;65.30;;;;;;2588960;53;20949;-69
2021/11/27 02:56:28;;;;;;;1.52;0.70;;;6.60;65.40;;;;;;2338150;54;20916;-68
2021/11/27 02:58:54;;;;;;;2.03;0.75;;;6.60;65.60;;;;;;2321928;54;20973;-69
2021/11/27 03:01:20;;;;;;;2.60;1.08;;;6.60;65.80;;;;;;2576639;53;20937;-68
2021/11/27 03:03:47;;;;;;;2.58;1.08;;;6.50;65.90;;;;;;2342748;54;21008;-68
2021/11/27 03:06:14;;;;;;;2.03;0.90;;;6.50;66.10;;;;;;2342787;54;20948;-69
2021/11/27 03:08:41;;;;;;;2.25;1.10;;;6.50;66.30;;;;;;2320046;54;21026;-68
2021/11/27 03:11:07;;;;;;;3.05;1.00;;;6.50;66.40;;;;;;2342313;54;21060;-68
2021/11/27 03:13:37;;;;;;;2.90;1.10;;;6.50;66.60;;;;;;2317178;54;20980;-69
2021/11/27 03:16:04;;;;;;;2.85;1.00;;;6.50;66.80;;;;;;2557022;53;20976;-68
2021/11/27 03:18:30;;;;;;;1.83;0.80;;;6.40;66.80;;;;;;2321295;54;21032;-69
2021/11/27 03:20:56;;;;;;;1.87;0.82;;;6.40;66.90;;;;;;2343037;54;20980;-69
2021/11/27 03:23:31;;;;;;;2.53;0.80;;;6.40;67.10;;;;;;2316987;54;20964;-69
2021/11/27 03:25:58;;;;;;;2.15;0.75;;;6.40;67.30;;;;;;2326484;54;20982;-69
2021/11/27 03:28:24;;;;;;;2.15;0.70;;;6.40;67.40;;;;;;2321087;54;21068;-69
2021/11/27 03:30:50;;;;;;;1.55;0.65;;;6.40;67.60;;;;;;2314035;54;21517;-69
2021/11/27 03:33:17;;;;;;;2.22;0.90;;;6.40;67.70;;;;;;2318797;54;20951;-68
2021/11/27 03:35:43;;;;;;;1.73;0.60;;;6.40;67.90;;;;;;2325528;54;21704;-68
2021/11/27 03:38:09;;;;;;;1.42;0.60;;;6.40;68.00;;;;;;2327912;54;21012;-68
2021/11/27 03:40:38;;;;;;;1.05;0.60;;;6.40;68.20;;;;;;2327900;54;21458;-68
2021/11/27 03:43:04;;;;;;;1.98;0.70;;;6.40;68.40;;;;;;2334183;54;20937;-69
2021/11/27 03:45:30;;;;;;;3.33;0.70;;;6.40;68.60;;;;;;2342572;54;21048;-69
2021/11/27 03:48:08;;;;;;;2.58;0.90;;;6.40;68.70;;;;;;2342501;54;21004;-68
2021/11/27 03:50:42;;;;;;;1.52;0.60;;;6.40;68.90;;;;;;2588661;53;21036;-68
2021/11/27 03:53:08;;;;;;;1.33;0.60;;;6.40;69.10;;;;;;2588776;53;21802;-68
2021/11/27 03:55:35;;;;;;;1.95;0.70;;;6.50;69.20;;;;;;2318029;54;21088;-68
2021/11/27 03:58:01;;;;;;;2.47;0.70;;;6.50;69.30;;;;;;2323264;54;21844;-68
2021/11/27 04:00:28;;;;;;;2.33;0.90;;;6.50;69.50;;;;;;2338246;54;20964;-69
2021/11/27 04:02:54;;;;;;;2.40;0.80;;;6.50;69.60;;;;;;2562664;53;20998;-68
2021/11/27 04:05:22;;;;;;;1.48;0.70;;;6.50;70.50;;;;;;2582877;53;21032;-69
2021/11/27 04:07:48;;;;;;;1.40;0.60;;;6.60;69.90;;;;;;2332897;54;21002;-68
2021/11/27 04:10:16;;;;;;;1.42;0.60;;;6.60;70.00;;;;;;2314587;54;20987;-68
2021/11/27 04:12:45;;;;;;;2.10;0.82;;;6.60;70.00;;;;;;2326149;54;20959;-69
2021/11/27 04:15:12;;;;;;;1.80;0.60;;;6.70;70.10;;;;;;2302561;55;20967;-69
2021/11/27 04:17:39;;;;;;;1.35;0.60;;;6.70;70.10;;;;;;2341905;54;20929;-69
2021/11/27 04:20:08;;;;;;;1.25;0.60;;;6.70;70.20;;;;;;2342501;54;21004;-68
2021/11/27 04:22:34;;;;;;;1.25;0.62;;;6.80;70.20;;;;;;2342281;54;20996;-68
2021/11/27 04:25:01;;;;;;;1.30;0.60;;;6.80;70.20;;;;;;2330532;54;20934;-69
2021/11/27 04:27:27;;;;;;;1.05;0.55;;;6.80;70.20;;;;;;2556284;53;21043;-69
2021/11/27 04:29:54;;;;;;;1.17;0.60;;;6.80;70.20;;;;;;2333171;54;20936;-68
2021/11/27 04:32:20;;;;;;;2.25;0.60;;;6.80;70.20;;;;;;2313084;54;20928;-69
2021/11/27 04:34:46;;;;;;;2.90;0.90;;;6.80;70.10;;;;;;2333280;54;21056;-69
2021/11/27 04:37:15;;;;;;;2.12;0.70;;;6.80;70.00;;;;;;2328269;54;20985;-68
2021/11/27 04:39:42;;;;;;;1.27;0.47;;;6.90;70.10;;;;;;2341863;54;21129;-68
2021/11/27 04:42:23;;;;;;;1.48;0.50;;;6.80;70.00;;;;;;2557494;53;21017;-69
2021/11/27 04:44:53;;;;;;;1.30;0.60;;;6.90;70.10;;;;;;2303650;55;20984;-68
2021/11/27 04:47:19;;;;;;;1.20;0.60;;;6.80;70.00;;;;;;2316544;55;21073;-69
2021/11/27 04:49:45;;;;;;;1.12;0.50;;;6.80;70.10;;;;;;2321078;54;21419;-68
2021/11/27 04:52:12;;;;;;;1.37;0.40;;;6.80;70.00;;;;;;2325449;54;21024;-68
2021/11/27 04:54:38;;;;;;;1.23;0.60;;;6.80;70.00;;;;;;2326442;54;20937;-69
2021/11/27 04:57:04;;;;;;;2.80;0.85;;;6.80;70.20;;;;;;2342334;54;20952;-68
2021/11/27 04:59:31;;;;;;;1.42;0.70;;;6.80;70.20;;;;;;2324258;54;20999;-69
2021/11/27 05:01:57;;;;;;;1.37;0.57;;;6.90;70.40;;;;;;2337082;54;20929;-69
2021/11/27 05:04:25;;;;;;;1.05;0.50;;;6.90;70.40;;;;;;2556563;53;20939;-69
2021/11/27 05:06:55;;;;;;;1.48;0.43;;;6.90;70.40;;;;;;2331613;54;20978;-68
2021/11/27 05:09:24;;;;;;;1.20;0.50;;;6.90;70.60;;;;;;2291409;55;20921;-69
2021/11/27 05:11:50;;;;;;;1.10;0.50;;;6.90;71.30;;;;;;2320157;54;20969;-69
2021/11/27 05:14:17;;;;;;;1.45;0.55;;;6.90;70.60;;;;;;2343563;54;20921;-69
2021/11/27 05:16:43;;;;;;;0.93;0.50;;;6.90;70.70;;;;;;2342190;54;21001;-68
2021/11/27 05:19:09;;;;;;;1.83;0.60;;;6.90;70.60;;;;;;2587962;53;21008;-68
2021/11/27 05:21:35;;;;;;;1.30;0.62;;;6.90;70.70;;;;;;2341547;54;21004;-68
2021/11/27 05:24:02;;;;;;;1.48;0.60;;;6.90;70.70;;;;;;2555562;53;21815;-68
2021/11/27 05:26:29;;;;;;;1.50;0.65;;;6.90;70.60;;;;;;2328598;54;20958;-68
2021/11/27 05:28:55;;;;;;;0.98;0.50;;;6.90;70.50;;;;;;2332253;54;21410;-69
2021/11/27 05:31:24;;;;;;;1.80;0.68;;;6.90;70.50;;;;;;2324873;54;20997;-69
2021/11/27 05:38:09;;;;;;;1.33;0.55;;;6.90;70.60;;;;;;2319588;54;20954;-68
2021/11/27 05:40:36;;;;;;;1.85;0.68;;;6.90;70.60;;;;;;2344629;54;20980;-70
2021/11/27 05:43:03;;;;;;;1.33;0.70;;;6.90;70.60;;;;;;2557768;53;20969;-69
2021/11/27 05:45:29;;;;;;;1.85;0.90;;;6.90;70.70;;;;;;2298869;54;21032;-69
2021/11/27 05:47:59;;;;;;;1.42;0.65;;;6.90;70.70;;;;;;2321377;54;20937;-68
2021/11/27 05:50:25;;;;;;;2.03;0.75;;;6.90;70.80;;;;;;2553210;53;21431;-69
2021/11/27 05:52:53;;;;;;;1.87;0.85;;;6.90;70.80;;;;;;2324776;54;21057;-68
2021/11/27 05:55:20;;;;;;;1.60;0.70;;;6.90;70.70;;;;;;2305692;54;20997;-68
2021/11/27 05:57:46;;;;;;;2.10;0.68;;;6.90;70.70;;;;;;2339777;54;21025;-68
2021/11/27 06:00:15;;;;;;;1.15;0.50;;;6.90;70.80;;;;;;2331624;54;21025;-69
2021/11/27 06:02:41;;;;;;;1.58;0.85;;;6.90;70.80;;;;;;2330471;54;20956;-69
2021/11/27 06:05:08;;;;;;;1.83;0.70;;;6.90;70.90;;;;;;2325826;54;21062;-69
2021/11/27 06:07:36;;;;;;;1.52;0.65;;;6.90;70.90;;;;;;2314033;55;20945;-69
2021/11/27 06:10:04;;;;;;;1.65;0.80;;;6.90;70.90;;;;;;2558065;53;21065;-69
2021/11/27 06:13:16;;;;;;;1.75;0.80;;;6.90;70.90;;;;;;2572485;53;21728;-69
2021/11/27 06:15:42;;;;;;;2.30;1.02;;;6.90;70.80;;;;;;2588821;53;20992;-69
2021/11/27 06:18:09;;;;;;;1.98;0.60;;;6.90;71.20;;;;;;2588708;53;20969;-68
2021/11/27 06:21:20;;;;;;;2.33;0.95;;;6.90;71.10;;;;;;2304330;54;21059;-69
2021/11/27 06:24:17;;;;;;;1.65;0.80;;;6.90;71.10;;;;;;2547357;53;20980;-69
2021/11/27 06:26:43;;;;;;;2.33;0.85;;;6.90;71.20;;;;;;2335595;54;21082;-69
2021/11/27 06:29:10;;;;;;;1.70;0.77;;;6.90;71.40;;;;;;2342437;54;21021;-69
2021/11/27 06:31:36;;;;;;;1.33;0.60;;;7.00;71.60;;;;;;2328179;54;20970;-69
2021/11/27 06:34:02;;;;;;;2.10;0.90;;;7.00;71.70;;;;;;2317694;54;21764;-69
2021/11/27 06:36:30;;;;;;;1.77;0.70;;;7.00;71.70;;;;;;2315178;54;21013;-69
2021/11/27 06:39:02;;;;;;;1.35;0.60;;;7.00;71.80;;;;;;2313925;54;21426;-69
2021/11/27 06:41:41;;;;;;;1.83;0.73;;;7.00;71.70;;;;;;2319682;55;20976;-69
2021/11/27 06:44:07;;;;;;;1.70;0.68;;;7.10;71.70;;;;;;2554574;53;20923;-69
2021/11/27 06:46:34;;;;;;;2.53;0.85;;;7.10;71.80;;;;;;2307487;54;21025;-69
2021/11/27 06:49:00;;;;;;;1.77;0.73;;;7.10;71.90;;;;;;2332633;54;20950;-70
2021/11/27 06:51:27;;;;;;;1.30;0.55;;;7.20;71.90;;;;;;2324427;54;21859;-69
2021/11/27 06:53:53;;;;;;;2.35;0.70;;;7.20;71.90;;;;;;2342767;54;21025;-69
2021/11/27 06:56:19;;;;;;;2.60;0.70;;;7.20;72.00;;;;;;2342193;54;20996;-69
2021/11/27 06:58:47;;;;;;;4.20;0.90;;;7.20;72.00;;;;;;2585585;53;21112;-69
2021/11/27 07:01:14;;;;;;;1.83;0.73;;;7.30;71.90;;;;;;2328847;54;21040;-69
2021/11/27 07:03:43;;;;;;;3.03;0.90;;;7.30;72.00;;;;;;2585066;53;20980;-69
2021/11/27 07:06:10;;;;;;;2.45;1.00;;;7.30;72.10;;;;;;2319358;54;20968;-69
2021/11/27 07:08:36;;;;;;;2.53;0.90;;;7.30;71.90;;;;;;2584006;53;20972;-69
2021/11/27 07:11:03;;;;;;;2.97;0.90;;;7.40;72.10;;;;;;2320865;54;20985;-69
2021/11/27 07:13:29;;;;;;;2.17;0.90;;;7.40;72.20;;;;;;2325319;54;20994;-70
2021/11/27 07:15:55;;;;;;;1.90;0.80;;;7.40;72.10;;;;;;2339058;54;22408;-70
2021/11/27 07:18:22;;;;;;;2.17;0.70;;;7.40;72.10;;;;;;2336100;54;21467;-69
2021/11/27 07:20:49;;;;;;;2.67;0.88;;;7.50;72.20;;;;;;2568652;53;21853;-69
2021/11/27 07:23:15;;;;;;;3.87;0.80;;;7.50;72.10;;;;;;2588143;53;21005;-70
2021/11/27 07:25:50;;;;;;;2.75;0.90;;;7.50;72.10;;;;;;2579481;53;21492;-70
2021/11/27 07:28:26;;;;;;;2.58;1.05;;;7.60;72.10;;;;;;2551144;53;20945;-70
2021/11/27 07:30:52;;;;;;;3.25;1.12;;;7.60;72.10;;;;;;2575693;53;20947;-69
2021/11/27 07:33:20;;;;;;;3.03;1.40;;;7.60;72.10;;;;;;2320808;54;20937;-68
2021/11/27 07:35:46;;;;;;;4.03;1.62;;;7.60;71.80;;;;;;2558212;53;20949;-70
2021/11/27 07:38:13;;;;;;;2.30;0.98;;;7.60;71.90;;;;;;2341637;54;20972;-70
2021/11/27 07:40:39;;;;;;;2.83;1.10;;;7.70;71.70;;;;;;2342068;54;20985;-70
2021/11/27 07:43:05;;;;;;;3.25;1.15;;;7.70;71.80;;;;;;2312549;54;20982;-70
2021/11/27 07:45:34;;;;;;;3.47;0.85;;;7.70;71.80;;;;;;2307757;54;21012;-70
2021/11/27 07:48:03;;;;;;;4.10;1.45;;;7.70;71.90;;;;;;2567434;53;21042;-70
2021/11/27 07:50:29;;;;;;;3.17;1.10;;;7.70;71.70;;;;;;2317922;54;21025;-70
2021/11/27 07:52:58;;;;;;;3.40;1.00;;;7.70;71.80;;;;;;2529471;54;22038;-70
2021/11/27 07:55:28;;;;;;;2.75;1.00;;;7.80;71.90;;;;;;2321768;54;20993;-70
2021/11/27 07:57:55;;;;;;;4.07;0.90;;;7.80;71.80;;;;;;2342362;54;20957;-70
2021/11/27 08:00:21;;;;;;;2.40;1.02;;;7.80;71.90;;;;;;2587049;53;21789;-70
2021/11/27 08:02:47;;;;;;;3.37;1.10;;;7.80;71.90;;;;;;2556585;53;21699;-69
2021/11/27 08:05:17;;;;;;;2.00;0.80;;;7.80;71.90;;;;;;2572130;53;20957;-70
2021/11/27 08:07:43;;;;;;;2.37;0.90;;;7.80;71.70;;;;;;2588341;53;20989;-69
2021/11/27 08:10:10;;;;;;;2.75;1.00;;;7.80;71.90;;;;;;2588210;53;21390;-69
2021/11/27 08:12:37;;;;;;;2.92;1.08;;;7.90;72.10;;;;;;2341249;54;20961;-70
2021/11/27 08:15:04;;;;;;;3.20;1.08;;;7.90;72.20;;;;;;2585806;53;21981;-70
2021/11/27 08:17:30;;;;;;;3.42;1.10;;;8.00;72.10;;;;;;2322903;54;21970;-70
2021/11/27 08:19:56;;;;;;;3.10;1.10;;;8.00;72.20;;;;;;2325494;54;21036;-70
2021/11/27 08:22:22;;;;;;;2.53;1.10;;;8.00;72.20;;;;;;2339880;54;21717;-69
2021/11/27 08:24:51;;;;;;;2.05;0.90;;;8.10;72.30;;;;;;2580391;53;20984;-70
2021/11/27 08:27:17;;;;;;;2.42;0.90;;;8.10;72.20;;;;;;2324294;54;20953;-71
2021/11/27 08:29:43;;;;;;;2.17;0.85;;;8.10;72.20;;;;;;2341742;54;20941;-70
2021/11/27 08:32:10;;;;;;;2.08;0.80;;;8.20;72.20;;;;;;2322079;54;20945;-70
2021/11/27 08:34:36;;;;;;;2.62;1.23;;;8.20;72.00;;;;;;2336574;54;21021;-70
2021/11/27 08:37:04;;;;;;;2.83;1.00;;;8.20;71.90;;;;;;2316626;54;21576;-70
2021/11/27 08:39:30;;;;;;;2.90;1.10;;;8.20;71.60;;;;;;2317133;54;21414;-70
2021/11/27 08:41:57;;;;;;;1.90;0.80;;;8.20;71.50;;;;;;2339997;54;20945;-71
2021/11/27 08:44:23;;;;;;;2.87;1.12;;;8.30;71.50;;;;;;2318734;54;20954;-71
2021/11/27 08:46:50;;;;;;;3.03;0.90;;;8.30;71.30;;;;;;2311650;54;21065;-70
2021/11/27 08:49:16;;;;;;;2.87;1.02;;;8.30;71.20;;;;;;2316210;54;20972;-70
2021/11/27 08:51:43;;;;;;;4.05;1.10;;;8.30;71.20;;;;;;2310145;54;20940;-70
2021/11/27 08:54:12;;;;;;;2.97;0.95;;;8.30;71.30;;;;;;2317656;54;21056;-70
2021/11/27 08:56:40;;;;;;;3.33;1.10;;;8.30;71.20;;;;;;2341365;54;21430;-70
2021/11/27 08:59:06;;;;;;;2.40;1.20;;;8.30;71.20;;;;;;2337312;54;20970;-70
2021/11/27 09:01:32;;;;;;;4.25;1.20;;;8.30;71.30;;;;;;2323068;54;21001;-70
2021/11/27 09:03:59;;;;;;;2.67;1.20;;;8.30;71.50;;;;;;2322785;54;21811;-68
2021/11/27 09:06:25;;;;;;;4.50;1.37;;;8.30;71.40;;;;;;2320449;54;21392;-71
2021/11/27 09:08:51;;;;;;;3.65;1.67;;;8.30;71.50;;;;;;2332416;54;20980;-70
2021/11/27 09:11:18;;;;;;;8.75;3.55;;;8.30;71.40;;;;;;2332085;54;21044;-70
2021/11/27 09:13:45;;;;;;;7.05;2.97;;;8.40;71.40;;;;;;2568037;53;20950;-70
2021/11/27 09:16:11;;;;;;;4.72;2.37;;;8.40;71.20;;;;;;2575955;53;21008;-70
2021/11/27 09:18:57;;;;;;;4.68;2.10;;;8.40;71.00;;;;;;2319112;55;21032;-70
2021/11/27 09:21:24;;;;;;;3.72;1.80;;;8.30;70.70;;;;;;2588466;53;20925;-70
2021/11/27 09:23:50;;;;;;;5.07;2.20;;;8.30;70.60;;;;;;2342150;54;21734;-70
2021/11/27 09:26:16;;;;;;;3.47;1.60;;;8.30;70.50;;;;;;2342883;54;21577;-70
2021/11/27 09:28:42;;;;;;;4.25;2.17;;;8.30;70.50;;;;;;2320192;54;20953;-71
2021/11/27 09:31:09;;;;;;;4.25;2.05;;;8.20;70.30;;;;;;2341868;54;21007;-70
2021/11/27 09:33:36;;;;;;;5.43;2.12;;;8.20;70.50;;;;;;2556212;53;21040;-70
2021/11/27 09:36:07;;;;;;;3.12;1.62;;;8.10;70.40;;;;;;2336530;54;21418;-70
2021/11/27 09:38:35;;;;;;;3.25;1.70;;;8.10;70.40;;;;;;2320201;54;20958;-70
2021/11/27 09:41:22;;;;;;;4.43;2.00;;;8.10;70.30;;;;;;2588531;53;21410;-70
2021/11/27 09:43:49;;;;;;;2.97;1.50;;;8.00;70.10;;;;;;2324371;54;20946;-70
2021/11/27 09:46:19;;;;;;;3.92;1.87;;;8.00;70.50;;;;;;2337928;54;20949;-70
2021/11/27 09:48:48;;;;;;;4.85;2.12;;;8.00;70.50;;;;;;2342418;54;20968;-70
2021/11/27 09:51:17;;;;;;;4.55;2.42;;;7.90;70.60;;;;;;2318925;54;21873;-70
2021/11/27 09:53:45;;;;;;;5.72;2.60;;;7.90;70.80;;;;;;2342704;54;20925;-70
2021/11/27 09:56:15;;;;;;;5.72;3.75;;;7.90;71.00;;;;;;2342339;54;21763;-70
2021/11/27 09:58:41;;;;;;;4.22;2.35;;;7.90;71.10;;;;;;2588258;53;21830;-70
2021/11/27 10:01:07;;;;;;;3.75;2.12;;;7.90;71.30;;;;;;2324358;54;20967;-69
2021/11/27 10:03:34;;;;;;;3.85;1.92;;;7.90;71.20;;;;;;2337240;54;20932;-70
2021/11/27 10:06:01;;;;;;;3.87;1.95;;;7.90;71.20;;;;;;2586846;53;21112;-70
2021/11/27 10:08:27;;;;;;;4.15;1.75;;;7.80;71.10;;;;;;2342673;54;20941;-71
2021/11/27 10:10:53;;;;;;;6.35;3.37;;;7.90;71.20;;;;;;2588809;53;21477;-70
2021/11/27 10:13:20;;;;;;;6.75;4.37;;;7.90;71.30;;;;;;2342272;54;20953;-70
2021/11/27 10:15:48;;;;;;;6.43;3.47;;;7.90;71.40;;;;;;2588384;53;21485;-70
2021/11/27 10:18:20;;;;;;;6.12;3.83;;;7.90;71.50;;;;;;2340250;54;20966;-70
2021/11/27 10:20:48;;;;;;;8.13;4.68;;;7.90;71.60;;;;;;2566703;53;20994;-70
2021/11/27 10:23:15;;;;;;;10.20;5.68;;;7.90;71.70;;;;;;2326326;54;20951;-70
2021/11/27 10:25:45;;;;;;;6.78;4.25;;;7.90;71.90;;;;;;2311748;55;21061;-71
2021/11/27 10:28:16;;;;;;;6.10;3.50;;;7.90;72.20;;;;;;2302390;55;20961;-70
2021/11/27 10:30:58;;;;;;;4.87;2.37;;;7.90;72.40;;;;;;2573467;53;20970;-70
2021/11/27 10:36:52;;;;;;;2.80;1.30;;;8.10;73.10;;;;;;2587459;53;21061;-70
2021/11/27 10:39:19;;;;;;;4.10;1.30;;;8.10;72.40;;;;;;2341820;54;21569;-69
2021/11/27 10:41:59;;;;;;;4.03;1.50;;;8.10;72.40;;;;;;2323066;54;20930;-70
2021/11/27 10:44:30;;;;;;;3.53;1.40;;;8.10;72.10;;;;;;2341432;54;21008;-70
2021/11/27 10:47:17;;;;;;;3.33;1.52;;;8.10;72.10;;;;;;2588339;53;21009;-70
2021/11/27 10:49:45;;;;;;;3.20;1.52;;;8.20;71.80;;;;;;2318786;55;20953;-70
2021/11/27 10:52:17;;;;;;;3.45;1.70;;;8.20;72.10;;;;;;2322232;54;21332;-70
2021/11/27 10:54:56;;;;;;;3.10;1.30;;;8.20;72.10;;;;;;2341089;54;21013;-69
2021/11/27 10:57:37;;;;;;;3.42;1.55;;;8.20;71.90;;;;;;2325428;54;20915;-70
2021/11/27 11:00:26;;;;;;;2.80;1.40;;;8.20;71.90;;;;;;2552020;53;21393;-70
2021/11/27 11:02:52;;;;;;;3.40;1.70;;;8.20;71.70;;;;;;2333940;54;20922;-70
2021/11/27 11:05:19;;;;;;;3.45;1.98;;;8.20;71.80;;;;;;2572486;53;21056;-70
2021/11/27 11:07:56;;;;;;;3.95;2.15;;;8.30;72.00;;;;;;2314728;54;21468;-70
2021/11/27 11:10:24;;;;;;;4.55;2.10;;;8.30;71.80;;;;;;2320025;54;20984;-71
2021/11/27 11:12:55;;;;;;;6.00;2.03;;;8.20;70.90;;;;;;2295671;55;21040;-70
2021/11/27 11:15:30;;;;;;;4.32;2.05;;;8.20;70.50;;;;;;2305611;55;21089;-71
2021/11/27 11:18:28;;;;;;;2.70;1.40;;;8.10;68.90;;;;;;2323077;54;21034;-70
2021/11/27 11:20:55;;;;;;;3.08;1.58;;;8.10;67.80;;;;;;2313570;55;21030;-70
2021/11/27 11:23:33;;;;;;;2.72;1.48;;;7.90;67.40;;;;;;2328505;54;20953;-68
2021/11/27 11:26:21;;;;;;;3.33;1.35;;;7.80;67.40;;;;;;2338441;54;21439;-68
2021/11/27 11:28:51;;;;;;;2.12;0.98;;;7.60;67.60;;;;;;2321157;54;21022;-69
2021/11/27 11:31:22;;;;;;;2.83;1.00;;;7.50;67.70;;;;;;2326842;54;21012;-69
2021/11/27 11:33:53;;;;;;;2.12;0.80;;;7.30;67.70;;;;;;2338201;54;25009;-69
2021/11/27 11:36:24;;;;;;;2.85;0.95;;;7.20;67.80;;;;;;2522014;54;21008;-69
2021/11/27 11:38:52;;;;;;;1.90;0.82;;;7.00;67.90;;;;;;2333315;54;20949;-69
2021/11/27 11:41:20;;;;;;;2.70;0.90;;;6.90;68.00;;;;;;2587554;53;21777;-69
2021/11/27 11:43:47;;;;;;;6.65;1.77;;;6.80;68.30;;;;;;2340732;54;20945;-69
2021/11/27 11:46:13;;;;;;;5.53;1.70;;;6.70;68.60;;;;;;2522125;53;1820331;-69
2021/11/27 11:48:44;;;;;;;3.92;1.58;;;6.60;68.90;;;;;;2555863;53;21059;-69
2021/11/27 11:52:42;;;;;;;3.05;1.30;;;6.50;69.20;;;;;;2556776;53;21055;-69
2021/11/27 11:55:11;;;;;;;4.68;1.40;;;6.50;69.40;;;;;;2345552;54;21342;-69
2021/11/27 11:57:45;;;;;;;1.83;0.70;;;6.40;69.90;;;;;;2343009;54;20944;-68
2021/11/27 12:00:37;;;;;;;2.90;1.10;;;6.40;70.20;;;;;;2328486;54;20955;-69
2021/11/27 12:03:13;;;;;;;2.28;0.90;;;6.40;70.40;;;;;;2563692;53;20945;-69
2021/11/27 12:09:12;;;;;;;3.60;1.12;;;6.30;70.80;;;;;;2342441;54;20952;-69
2021/11/27 12:12:38;;;;;;;3.00;1.30;;;6.40;71.20;;;;;;2317561;55;21032;-69
2021/11/27 12:15:06;;;;;;;5.00;2.03;;;6.50;72.80;;;;;;2342083;54;20965;-69
2021/11/27 12:17:33;;;;;;;4.65;2.15;;;6.60;74.20;;;;;;2343072;54;20933;-69
2021/11/27 12:20:03;;;;;;;3.35;1.50;;;6.70;75.10;;;;;;2341648;54;20985;-69
2021/11/27 12:22:39;;;;;;;3.75;0.93;;;6.80;75.90;;;;;;2588280;53;20929;-69
2021/11/27 12:25:38;;;;;;;2.22;0.80;;;7.00;76.80;;;;;;2320140;54;21055;-69
2021/11/27 12:28:12;;;;;;;2.45;0.90;;;7.30;77.10;;;;;;2342832;54;21466;-70
2021/11/27 12:30:56;;;;;;;4.68;0.80;;;7.60;78.20;;;;;;2306880;54;21009;-70
2021/11/27 12:33:59;;;;;;;1.40;0.57;;;7.80;78.50;;;;;;2337963;54;20956;-70
2021/11/27 12:36:46;;;;;;;;;;;8.00;76.80;;;;;;2345640;54;20965;-69
2021/11/27 12:39:32;;;;;;;2.42;0.60;;;8.20;75.60;;;;;;2533587;54;20068;-70
2021/11/27 12:42:31;;;;;;;3.58;0.80;;;8.30;74.20;;;;;;2340219;54;21450;-70
2021/11/27 12:44:57;;;;;;;1.83;0.50;;;8.30;73.10;;;;;;2329617;54;21081;-69
2021/11/27 12:47:32;;;;;;;1.48;0.52;;;8.30;73.10;;;;;;2550137;54;22057;-70
2021/11/27 12:50:00;;;;;;;0.55;0.30;;;8.30;72.50;;;;;;2311637;54;20955;-70
2021/11/27 12:52:34;;;;;;;3.78;1.48;;;8.30;72.40;;;;;;2578730;53;20933;-70
2021/11/27 12:57:38;;;;;;;2.05;1.05;;;8.30;72.10;;;;;;2342100;54;21024;-70
2021/11/27 13:00:27;;;;;;;2.47;1.10;;;8.30;71.20;;;;;;2342297;54;20913;-70
2021/11/27 13:03:00;;;;;;;2.05;1.00;;;8.30;71.40;;;;;;2342354;54;20973;-70
2021/11/27 13:05:30;;;;;;;2.12;1.00;;;8.30;71.60;;;;;;2587724;53;20973;-70
2021/11/27 13:07:58;;;;;;;2.47;0.90;;;8.30;71.60;;;;;;2326672;54;21017;-70
2021/11/27 13:10:24;;;;;;;1.90;1.08;;;8.20;71.40;;;;;;2323684;54;20944;-70
2021/11/27 13:13:24;;;;;;;1.80;0.90;;;8.20;71.40;;;;;;2588368;53;21004;-69
2021/11/27 13:15:52;;;;;;;2.62;0.62;;;8.20;70.90;;;;;;2574914;53;21005;-70
2021/11/27 13:18:20;;;;;;;3.53;0.80;;;8.20;71.50;;;;;;2550713;53;20993;-69
2021/11/27 13:21:05;;;;;;;2.70;0.82;;;8.20;71.60;;;;;;2549305;54;20975;-70
2021/11/27 13:23:35;;;;;;;2.97;0.80;;;8.20;71.70;;;;;;2326659;54;21489;-70
2021/11/27 13:26:12;;;;;;;2.40;0.90;;;8.20;71.70;;;;;;2344237;54;20987;-69
2021/11/27 13:28:43;;;;;;;2.25;0.90;;;8.20;71.50;;;;;;2323508;54;20969;-70
2021/11/27 13:31:33;;;;;;;2.42;1.00;;;8.20;71.70;;;;;;2318981;54;21036;-70
2021/11/27 13:34:10;;;;;;;2.72;1.30;;;8.20;71.40;;;;;;2319436;54;20946;-69